createdAt,value
2024-02-18T00:00:40.840Z,1035.74
2024-02-18T00:01:41.512Z,1035.76
2024-02-18T00:02:42.136Z,1035.68
2024-02-18T00:03:42.963Z,1035.71
2024-02-18T00:04:43.683Z,1035.74
2024-02-18T00:05:44.323Z,1035.67
2024-02-18T00:06:45.100Z,1035.71
2024-02-18T00:07:45.730Z,1035.78
2024-02-18T00:08:46.374Z,1035.71
2024-02-18T00:09:46.992Z,1035.80
2024-02-18T00:10:47.583Z,1035.74
2024-02-18T00:11:48.343Z,1035.79
2024-02-18T00:12:48.978Z,1035.82
2024-02-18T00:13:49.674Z,1035.77
2024-02-18T00:14:50.262Z,1035.83
2024-02-18T00:15:50.927Z,1035.85
2024-02-18T00:16:51.536Z,1035.88
2024-02-18T00:17:52.178Z,1035.85
2024-02-18T00:18:52.878Z,1035.85
2024-02-18T00:19:53.674Z,1035.82
2024-02-18T00:20:54.271Z,1035.85
2024-02-18T00:21:54.917Z,1035.83
2024-02-18T00:22:55.518Z,1035.89
2024-02-18T00:23:56.116Z,1035.82
2024-02-18T00:24:56.795Z,1035.92
2024-02-18T00:25:57.426Z,1035.80
2024-02-18T00:26:59.288Z,1035.84
2024-02-18T00:27:59.683Z,1035.77
2024-02-18T00:29:00.388Z,1035.76
2024-02-18T00:30:00.986Z,1035.77
2024-02-18T00:31:01.702Z,1035.80
2024-02-18T00:32:02.372Z,1035.79
2024-02-18T00:33:03.024Z,1035.83
2024-02-18T00:34:03.771Z,1035.77
2024-02-18T00:35:04.465Z,1035.83
2024-02-18T00:36:05.165Z,1035.83
2024-02-18T00:37:05.784Z,1035.83
2024-02-18T00:38:06.378Z,1035.82
2024-02-18T00:39:06.961Z,1035.87
2024-02-18T00:40:07.693Z,1035.87
2024-02-18T00:41:08.355Z,1035.86
2024-02-18T00:42:08.950Z,1035.91
2024-02-18T00:43:09.588Z,1035.98
2024-02-18T00:44:10.165Z,1035.89
2024-02-18T00:45:10.812Z,1035.88
2024-02-18T00:46:20.162Z,1035.91
2024-02-18T00:47:12.986Z,1035.84
2024-02-18T00:48:13.630Z,1035.90
2024-02-18T00:49:14.353Z,1035.89
2024-02-18T00:50:14.981Z,1035.79
2024-02-18T00:51:15.569Z,1035.88
2024-02-18T00:52:16.163Z,1035.84
2024-02-18T00:53:16.748Z,1035.95
2024-02-18T00:54:17.485Z,1035.90
2024-02-18T00:55:18.005Z,1035.92
2024-02-18T00:56:18.593Z,1035.95
2024-02-18T00:57:19.246Z,1035.90
2024-02-18T00:58:19.857Z,1035.92
2024-02-18T00:59:20.448Z,1035.87
2024-02-18T01:00:21.085Z,1035.91
2024-02-18T01:01:21.789Z,1035.91
2024-02-18T01:02:22.517Z,1035.86
2024-02-18T01:03:23.272Z,1035.89
2024-02-18T01:04:23.908Z,1035.91
2024-02-18T01:05:24.512Z,1035.84
2024-02-18T01:06:25.157Z,1035.89
2024-02-18T01:07:25.753Z,1035.86
2024-02-18T01:08:26.433Z,1035.95
2024-02-18T01:09:27.035Z,1035.95
2024-02-18T01:10:27.617Z,1035.99
2024-02-18T01:11:28.350Z,1036.03
2024-02-18T01:12:28.959Z,1035.97
2024-02-18T01:13:29.553Z,1036.02
2024-02-18T01:14:30.156Z,1036.06
2024-02-18T01:15:30.765Z,1036.02
2024-02-18T01:16:31.375Z,1036.08
2024-02-18T01:17:31.988Z,1035.99
2024-02-18T01:18:32.708Z,1036.02
2024-02-18T01:19:33.448Z,1036.02
2024-02-18T01:20:34.072Z,1036.01
2024-02-18T01:21:34.718Z,1036.05
2024-02-18T01:22:35.305Z,1035.96
2024-02-18T01:23:35.888Z,1036.01
2024-02-18T01:24:36.549Z,1035.98
2024-02-18T01:25:37.138Z,1036.01
2024-02-18T01:26:37.725Z,1035.95
2024-02-18T01:27:38.329Z,1035.99
2024-02-18T01:28:38.949Z,1035.93
2024-02-18T01:29:39.583Z,1035.91
2024-02-18T01:30:40.306Z,1036.01
2024-02-18T01:31:40.873Z,1035.99
2024-02-18T01:32:41.527Z,1035.88
2024-02-18T01:33:42.146Z,1035.94
2024-02-18T01:34:42.810Z,1035.94
2024-02-18T01:35:43.396Z,1035.88
2024-02-18T01:36:44.133Z,1035.86
2024-02-18T01:37:44.785Z,1035.90
2024-02-18T01:38:45.428Z,1035.78
2024-02-18T01:39:46.098Z,1035.86
2024-02-18T01:40:46.695Z,1035.83
2024-02-18T01:41:47.260Z,1035.75
2024-02-18T01:42:47.892Z,1035.85
2024-02-18T01:43:48.493Z,1035.82
2024-02-18T01:44:49.116Z,1035.85
2024-02-18T01:45:49.719Z,1035.79
2024-02-18T01:46:50.374Z,1035.70
2024-02-18T01:47:50.961Z,1035.83
2024-02-18T01:48:51.765Z,1035.81
2024-02-18T01:49:52.725Z,1035.80
2024-02-18T01:50:53.520Z,1035.73
2024-02-18T01:51:54.186Z,1035.76
2024-02-18T01:52:54.872Z,1035.79
2024-02-18T01:53:55.452Z,1035.74
2024-02-18T01:54:56.081Z,1035.76
2024-02-18T01:55:56.751Z,1035.79
2024-02-18T01:56:57.359Z,1035.76
2024-02-18T01:57:58.089Z,1035.77
2024-02-18T01:58:58.699Z,1035.74
2024-02-18T01:59:59.290Z,1035.80
2024-02-18T02:01:00.028Z,1035.86
2024-02-18T02:02:00.725Z,1035.86
2024-02-18T02:03:01.291Z,1035.79
2024-02-18T02:04:01.955Z,1035.83
2024-02-18T02:05:02.715Z,1035.90
2024-02-18T02:06:03.435Z,1035.84
2024-02-18T02:07:04.061Z,1035.81
2024-02-18T02:08:04.700Z,1035.81
2024-02-18T02:09:05.289Z,1035.78
2024-02-18T02:10:06.078Z,1035.77
2024-02-18T02:11:06.758Z,1035.85
2024-02-18T02:12:07.371Z,1035.79
2024-02-18T02:13:08.098Z,1035.77
2024-02-18T02:14:08.735Z,1035.71
2024-02-18T02:15:09.344Z,1035.78
2024-02-18T02:16:09.961Z,1035.75
2024-02-18T02:17:10.553Z,1035.75
2024-02-18T02:18:11.244Z,1035.80
2024-02-18T02:19:11.994Z,1035.85
2024-02-18T02:20:12.582Z,1035.79
2024-02-18T02:21:13.163Z,1035.80
2024-02-18T02:22:13.793Z,1035.80
2024-02-18T02:23:14.446Z,1035.85
2024-02-18T02:24:15.090Z,1035.82
2024-02-18T02:25:15.878Z,1035.80
2024-02-18T02:26:16.502Z,1035.81
2024-02-18T02:27:17.103Z,1035.67
2024-02-18T02:28:17.685Z,1035.72
